createdAt,value
2018-02-15T00:01:53.327Z,-3.58
2018-02-15T00:04:25.836Z,-3.61
2018-02-15T00:06:54.627Z,-3.59
2018-02-15T00:09:28.495Z,-3.62
2018-02-15T00:11:58.891Z,-3.68
2018-02-15T00:14:28.961Z,-3.69
2018-02-15T00:17:01.383Z,-3.72
2018-02-15T00:19:30.719Z,-3.78
2018-02-15T00:21:59.202Z,-3.84
2018-02-15T00:24:29.451Z,-3.89
2018-02-15T00:27:00.427Z,-3.92
2018-02-15T00:29:28.952Z,-3.94
2018-02-15T00:31:59.382Z,-3.93
2018-02-15T00:34:29.717Z,-3.92
2018-02-15T00:37:03.307Z,-3.91
2018-02-15T00:39:33.493Z,-3.90
2018-02-15T00:42:02.180Z,-3.92
2018-02-15T00:44:30.618Z,-3.93
2018-02-15T00:46:59.558Z,-3.92
2018-02-15T00:49:29.801Z,-3.92
2018-02-15T00:51:59.240Z,-3.93
2018-02-15T00:54:30.492Z,-3.93
2018-02-15T00:56:58.943Z,-3.95
2018-02-15T00:59:27.542Z,-3.97
2018-02-15T01:01:56.326Z,-3.96
2018-02-15T01:04:25.027Z,-3.95
2018-02-15T01:06:53.713Z,-3.93
2018-02-15T01:09:22.290Z,-3.88
2018-02-15T01:11:50.850Z,-3.83
2018-02-15T01:14:20.395Z,-3.78
2018-02-15T01:16:49.185Z,-3.78
2018-02-15T01:19:24.022Z,-3.81
2018-02-15T01:21:54.412Z,-3.84
2018-02-15T01:24:30.292Z,-3.81
2018-02-15T01:26:58.836Z,-3.77
2018-02-15T01:29:27.365Z,-3.80
2018-02-15T01:31:56.999Z,-3.80
2018-02-15T01:34:27.289Z,-3.80
2018-02-15T01:37:00.608Z,-3.81
2018-02-15T01:39:29.900Z,-3.87
2018-02-15T01:42:00.162Z,-3.92
2018-02-15T01:44:28.732Z,-3.98
2018-02-15T01:47:00.153Z,-3.92
2018-02-15T01:49:29.357Z,-3.88
2018-02-15T01:51:59.664Z,-3.87
2018-02-15T01:54:30.731Z,-3.89
2018-02-15T01:57:00.995Z,-3.88
2018-02-15T01:59:32.293Z,-3.92
2018-02-15T02:02:04.657Z,-4.03
2018-02-15T02:04:40.417Z,-4.06
2018-02-15T02:07:11.208Z,-4.05
2018-02-15T02:09:42.392Z,-4.09
2018-02-15T02:12:16.082Z,-4.15
2018-02-15T02:14:45.524Z,-4.21
2018-02-15T02:17:18.084Z,-4.16
2018-02-15T02:19:46.578Z,-4.09
2018-02-15T02:22:17.878Z,-4.05
2018-02-15T02:24:46.510Z,-3.99
2018-02-15T02:27:14.988Z,-3.93
2018-02-15T02:29:43.792Z,-3.91
2018-02-15T02:32:26.286Z,-3.89
2018-02-15T02:34:54.778Z,-3.94
2018-02-15T02:37:26.566Z,-3.99
2018-02-15T02:39:55.320Z,-4.02
2018-02-15T02:42:39.693Z,-3.99
2018-02-15T02:45:10.896Z,-4.08
2018-02-15T02:47:39.478Z,-4.14
2018-02-15T02:50:07.981Z,-4.18
2018-02-15T02:52:38.192Z,-4.22
2018-02-15T02:55:07.712Z,-4.23
2018-02-15T02:57:37.741Z,-4.19
2018-02-15T03:00:08.624Z,-4.18
2018-02-15T03:02:39.305Z,-4.20
2018-02-15T03:05:08.887Z,-4.14
2018-02-15T03:07:40.763Z,-4.05
2018-02-15T03:10:09.443Z,-3.99
2018-02-15T03:12:37.954Z,-3.98
2018-02-15T03:15:06.534Z,-4.00
2018-02-15T03:17:35.219Z,-4.03
2018-02-15T03:20:05.521Z,-4.05
2018-02-15T03:22:35.051Z,-4.09
2018-02-15T03:25:05.375Z,-4.12
2018-02-15T03:27:38.925Z,-4.13
2018-02-15T03:30:07.449Z,-4.11
2018-02-15T03:32:35.935Z,-4.11
2018-02-15T03:35:04.419Z,-4.13
2018-02-15T03:40:19.099Z,-4.12
2018-02-15T03:42:49.323Z,-4.12
2018-02-15T03:45:28.967Z,-4.11
2018-02-15T03:47:59.162Z,-4.11
2018-02-15T03:50:27.875Z,-4.10
2018-02-15T03:53:00.063Z,-4.08
2018-02-15T03:55:31.895Z,-4.05
2018-02-15T03:58:00.377Z,-4.03
2018-02-15T04:00:30.462Z,-4.03
2018-02-15T04:02:59.075Z,-4.00
2018-02-15T04:05:27.586Z,-4.00
2018-02-15T04:07:57.837Z,-3.98
2018-02-15T04:10:27.411Z,-3.97
2018-02-15T04:12:58.417Z,-3.94
2018-02-15T04:15:28.654Z,-3.89
2018-02-15T04:17:58.983Z,-3.85
2018-02-15T04:20:28.409Z,-3.81
2018-02-15T04:22:58.620Z,-3.74
2018-02-15T04:25:27.366Z,-3.72
2018-02-15T04:27:57.612Z,-3.72
2018-02-15T04:30:28.597Z,-3.70
2018-02-15T04:33:06.895Z,-3.72
2018-02-15T04:35:37.159Z,-3.78
2018-02-15T04:38:07.959Z,-3.77
2018-02-15T04:40:36.434Z,-3.77
2018-02-15T04:43:04.909Z,-3.77
2018-02-15T04:45:41.752Z,-3.68
2018-02-15T04:48:12.229Z,-3.60
2018-02-15T04:50:43.340Z,-3.60
2018-02-15T04:53:20.654Z,-3.61
2018-02-15T04:55:52.309Z,-3.64
2018-02-15T04:58:22.597Z,-3.64
2018-02-15T05:00:52.041Z,-3.65
2018-02-15T05:03:22.381Z,-3.65
2018-02-15T05:05:54.869Z,-3.62
2018-02-15T05:08:29.975Z,-3.61
2018-02-15T05:10:58.415Z,-3.62
2018-02-15T05:13:26.951Z,-3.64
2018-02-15T05:15:55.417Z,-3.61
2018-02-15T05:18:29.230Z,-3.57
2018-02-15T05:21:04.007Z,-3.56
2018-02-15T05:23:36.965Z,-3.55
2018-02-15T05:26:05.636Z,-3.54
2018-02-15T05:28:34.171Z,-3.53
2018-02-15T06:05:26.014Z,-3.10
2018-02-15T06:07:54.515Z,-3.07
2018-02-15T06:10:25.048Z,-3.06
2018-02-15T06:12:53.634Z,-3.08
2018-02-15T06:15:23.712Z,-3.07
2018-02-15T06:17:53.997Z,-3.13
2018-02-15T06:20:24.997Z,-3.20
2018-02-15T06:22:53.599Z,-3.20
2018-02-15T06:25:22.075Z,-3.16
2018-02-15T06:27:50.577Z,-3.16
2018-02-15T06:30:19.040Z,-3.17
2018-02-15T06:32:47.734Z,-3.21
2018-02-15T06:35:17.057Z,-3.22
2018-02-15T06:37:47.509Z,-3.22
2018-02-15T06:40:18.502Z,-3.20
2018-02-15T06:42:48.807Z,-3.21
2018-02-15T06:45:19.970Z,-3.26
2018-02-15T06:47:50.999Z,-3.22
2018-02-15T06:50:20.255Z,-3.28
2018-02-15T06:52:51.421Z,-3.25
2018-02-15T06:55:27.642Z,-3.27
2018-02-15T06:57:56.135Z,-3.26
2018-02-15T07:00:26.535Z,-3.21
2018-02-15T07:02:57.596Z,-3.18
2018-02-15T07:05:26.930Z,-3.15
2018-02-15T07:07:55.484Z,-3.17
2018-02-15T07:10:26.256Z,-3.17
2018-02-15T07:12:57.662Z,-3.15
2018-02-15T07:15:28.120Z,-3.11
2018-02-15T07:17:59.337Z,-3.07
2018-02-15T07:20:30.052Z,-3.17
2018-02-15T07:23:00.384Z,-3.04
2018-02-15T07:25:33.082Z,-3.02
2018-02-15T07:28:05.505Z,-3.02
2018-02-15T07:30:34.770Z,-3.02
2018-02-15T07:33:03.230Z,-2.99
2018-02-15T07:35:33.406Z,-2.96
2018-02-15T07:38:02.189Z,-2.95
2018-02-15T07:40:32.313Z,-2.96
2018-02-15T07:43:02.560Z,-2.95
2018-02-15T07:45:32.115Z,-2.91
2018-02-15T07:48:01.452Z,-2.89
2018-02-15T07:50:30.000Z,-2.83
2018-02-15T07:52:58.478Z,-2.79
2018-02-15T07:55:26.964Z,-2.74
2018-02-15T07:57:57.298Z,-2.68
2018-02-15T08:00:26.704Z,-2.65
2018-02-15T08:02:55.187Z,-2.59
2018-02-15T08:05:23.748Z,-2.57
2018-02-15T08:07:54.050Z,-2.52
2018-02-15T08:10:26.369Z,-2.48
2018-02-15T08:12:57.494Z,-2.45
2018-02-15T08:15:28.262Z,-2.38
2018-02-15T08:17:58.544Z,-2.32
2018-02-15T08:20:29.969Z,-2.29
2018-02-15T08:23:02.529Z,-2.21
2018-02-15T08:25:32.834Z,-2.14
2018-02-15T08:28:04.430Z,-2.08
2018-02-15T08:30:33.282Z,-1.96
2018-02-15T08:33:02.646Z,-1.87
2018-02-15T08:35:31.172Z,-1.85
2018-02-15T08:37:59.753Z,-1.88
2018-02-15T08:40:28.506Z,-1.83
2018-02-15T08:42:59.012Z,-1.74
2018-02-15T08:45:28.285Z,-1.67
2018-02-15T08:47:59.005Z,-1.61
2018-02-15T08:50:29.280Z,-1.57
2018-02-15T08:52:59.550Z,-1.59
2018-02-15T08:55:30.599Z,-1.49
2018-02-15T08:58:00.780Z,-1.41
2018-02-15T09:00:31.096Z,-1.33
2018-02-15T09:03:03.806Z,-1.33
2018-02-15T09:05:35.833Z,-1.30
2018-02-15T09:08:04.586Z,-1.26
2018-02-15T09:10:33.273Z,-1.24
2018-02-15T09:13:11.405Z,-1.19
2018-02-15T09:15:42.541Z,-1.10
2018-02-15T09:18:11.216Z,-1.05
2018-02-15T09:20:46.248Z,-1.02
2018-02-15T09:23:30.790Z,-0.96
2018-02-15T09:25:59.698Z,-0.93
2018-02-15T09:28:28.183Z,-0.86
2018-02-15T09:30:56.614Z,-0.77
2018-02-15T09:33:25.241Z,-0.67
2018-02-15T09:35:54.764Z,-0.62
2018-02-15T09:38:26.791Z,-0.61
2018-02-15T09:40:55.303Z,-0.55
2018-02-15T09:43:28.649Z,-0.60
2018-02-15T09:45:57.999Z,-0.49
2018-02-15T09:48:32.330Z,-0.39
2018-02-15T09:51:02.624Z,-0.32
2018-02-15T09:53:32.255Z,-0.22
2018-02-15T09:56:06.706Z,-0.18
2018-02-15T09:58:36.883Z,-0.28
2018-02-15T10:01:07.170Z,-0.31
2018-02-15T10:03:38.693Z,-0.28
2018-02-15T10:06:11.621Z,-0.24
2018-02-15T10:08:40.239Z,-0.20
2018-02-15T10:11:12.541Z,-0.08
2018-02-15T10:13:43.031Z,-0.02
2018-02-15T10:16:11.680Z,0.03
2018-02-15T10:18:40.525Z,0.10
2018-02-15T10:21:09.009Z,0.14
2018-02-15T10:23:39.408Z,0.19
2018-02-15T10:26:17.008Z,0.25
2018-02-15T10:28:48.241Z,0.30
2018-02-15T10:33:59.042Z,0.34
2018-02-15T10:36:27.529Z,0.42
2018-02-15T10:38:57.743Z,0.49
2018-02-15T10:41:32.762Z,0.46
2018-02-15T10:44:02.309Z,0.48
2018-02-15T10:46:32.467Z,0.56
2018-02-15T10:49:04.766Z,0.65
2018-02-15T10:51:39.720Z,0.68
2018-02-15T10:54:08.530Z,0.75
2018-02-15T10:56:40.593Z,0.82
2018-02-15T10:59:10.765Z,0.77
2018-02-15T11:01:45.023Z,0.67
2018-02-15T11:04:22.227Z,0.78
2018-02-15T11:06:50.905Z,0.94
2018-02-15T11:09:23.495Z,1.07
2018-02-15T11:11:53.695Z,1.18
2018-02-15T11:14:25.418Z,1.26
2018-02-15T11:16:57.587Z,1.26
2018-02-15T11:19:31.951Z,1.18
2018-02-15T11:22:00.539Z,1.26
2018-02-15T11:24:29.842Z,1.33
2018-02-15T11:26:59.982Z,1.39
2018-02-15T11:29:30.377Z,1.31
2018-02-15T11:31:59.682Z,1.34
2018-02-15T11:34:36.102Z,1.33
2018-02-15T11:37:07.095Z,1.34
2018-02-15T11:39:36.612Z,1.35
2018-02-15T11:44:41.542Z,1.41
2018-02-15T11:49:53.067Z,1.49
2018-02-15T11:52:25.118Z,1.35
2018-02-15T11:54:53.929Z,1.26
2018-02-15T11:57:24.227Z,1.25
2018-02-15T11:59:56.678Z,1.32
2018-02-15T12:02:28.888Z,1.40
2018-02-15T12:04:57.570Z,1.47
2018-02-15T12:07:32.387Z,1.52
2018-02-15T12:10:00.987Z,1.56
2018-02-15T12:12:31.083Z,1.56
2018-02-15T12:14:59.798Z,1.57
2018-02-15T12:17:30.142Z,1.56
2018-02-15T12:20:00.532Z,1.57
2018-02-15T12:22:31.595Z,1.43
2018-02-15T12:25:02.745Z,1.46
2018-02-15T12:27:41.557Z,1.40
2018-02-15T12:30:24.382Z,1.49
2018-02-15T12:32:53.087Z,1.51
2018-02-15T12:35:21.786Z,1.51
2018-02-15T12:40:29.160Z,1.63
2018-02-15T12:42:59.459Z,1.58
2018-02-15T12:45:30.984Z,1.50
2018-02-15T12:47:59.623Z,1.43
2018-02-15T12:50:28.082Z,1.44
2018-02-15T12:52:58.204Z,1.38
2018-02-15T12:55:26.921Z,1.41
2018-02-15T12:57:55.622Z,1.42
2018-02-15T13:00:24.094Z,1.47
2018-02-15T13:02:54.539Z,1.49
2018-02-15T13:05:28.577Z,1.57
2018-02-15T13:07:59.038Z,1.60
2018-02-15T13:10:30.010Z,1.64
2018-02-15T13:13:12.174Z,1.72
2018-02-15T13:15:56.864Z,1.71
2018-02-15T13:18:39.685Z,1.76
2018-02-15T13:21:08.222Z,1.85
2018-02-15T13:23:36.829Z,1.84
2018-02-15T13:26:05.316Z,1.77
2018-02-15T13:28:40.315Z,1.65
2018-02-15T13:31:09.548Z,1.64
2018-02-15T13:33:38.042Z,1.67
2018-02-15T13:36:06.617Z,1.70
2018-02-15T13:38:38.277Z,1.66
2018-02-15T13:41:10.671Z,1.65
2018-02-15T13:43:41.278Z,1.63
2018-02-15T13:46:11.607Z,1.63
2018-02-15T13:48:43.606Z,1.61
2018-02-15T13:51:35.284Z,1.65
2018-02-15T13:54:04.609Z,1.67
2018-02-15T13:56:34.728Z,1.74
2018-02-15T13:59:05.446Z,1.72
2018-02-15T14:01:34.651Z,1.71
2018-02-15T14:04:04.931Z,1.78
2018-02-15T14:06:36.040Z,1.84
2018-02-15T14:09:07.207Z,1.86
2018-02-15T14:11:48.963Z,1.88
2018-02-15T14:14:19.239Z,1.86
2018-02-15T14:16:50.158Z,1.84
2018-02-15T14:19:19.414Z,1.87
2018-02-15T14:21:50.668Z,1.87
2018-02-15T14:24:20.864Z,1.85
2018-02-15T14:26:51.176Z,1.78
2018-02-15T14:29:22.022Z,1.79
2018-02-15T14:31:52.087Z,1.76
2018-02-15T14:34:31.192Z,1.69
2018-02-15T14:37:00.388Z,1.71
2018-02-15T14:39:37.168Z,1.68
2018-02-15T14:42:07.438Z,1.65
2018-02-15T14:44:46.537Z,1.63
2018-02-15T14:47:16.793Z,1.64
2018-02-15T14:49:47.065Z,1.63
2018-02-15T14:52:16.668Z,1.60
2018-02-15T14:54:48.937Z,1.51
2018-02-15T14:57:17.497Z,1.39
2018-02-15T14:59:46.017Z,1.34
2018-02-15T15:02:14.497Z,1.29
2018-02-15T15:04:46.867Z,1.27
2018-02-15T15:07:15.456Z,1.21
2018-02-15T15:09:44.054Z,1.10
2018-02-15T15:12:12.736Z,1.07
2018-02-15T15:14:41.423Z,1.02
2018-02-15T15:17:10.011Z,0.92
2018-02-15T15:19:38.607Z,0.87
2018-02-15T15:22:07.282Z,0.90
2018-02-15T15:24:37.616Z,0.91
2018-02-15T15:27:08.533Z,0.84
2018-02-15T15:29:38.637Z,0.83
2018-02-15T15:38:28.732Z,0.61
2018-02-15T15:41:02.551Z,0.66
2018-02-15T15:43:36.200Z,0.61
2018-02-15T15:46:10.131Z,0.56
2018-02-15T15:49:55.794Z,0.52
2018-02-15T15:52:29.534Z,0.48
2018-02-15T15:54:57.755Z,0.43
2018-02-15T15:57:26.039Z,0.42
2018-02-15T15:59:54.272Z,0.39
2018-02-15T16:02:22.560Z,0.38
2018-02-15T16:04:50.789Z,0.37
2018-02-15T16:07:19.030Z,0.27
2018-02-15T16:09:47.296Z,0.25
2018-02-15T16:12:15.526Z,0.25
2018-02-15T16:14:44.432Z,0.21
2018-02-15T16:17:12.663Z,0.20
2018-02-15T16:19:40.941Z,0.21
2018-02-15T16:22:09.867Z,0.22
2018-02-15T16:24:39.090Z,0.21
2018-02-15T16:27:07.457Z,0.21
2018-02-15T16:29:35.730Z,0.19
2018-02-15T16:32:03.990Z,0.15
2018-02-15T16:34:32.257Z,0.13
2018-02-15T16:37:00.503Z,0.15
2018-02-15T16:39:35.557Z,0.16
2018-02-15T16:42:03.814Z,0.14
2018-02-15T16:44:32.179Z,0.13
2018-02-15T16:47:00.438Z,0.11
2018-02-15T16:49:29.826Z,0.10
2018-02-15T16:52:00.523Z,0.09
2018-02-15T16:54:28.777Z,0.10
2018-02-15T16:57:00.901Z,0.10
2018-02-15T16:59:29.190Z,0.11
2018-02-15T17:01:57.447Z,0.12
2018-02-15T17:04:25.769Z,0.10
2018-02-15T17:06:53.997Z,0.11
2018-02-15T17:09:22.286Z,0.11
2018-02-15T17:11:50.529Z,0.10
2018-02-15T17:14:18.875Z,0.10
2018-02-15T17:16:47.117Z,0.09
2018-02-15T17:19:15.397Z,0.09
2018-02-15T17:21:43.658Z,0.08
2018-02-15T17:24:11.923Z,0.07
2018-02-15T17:26:40.175Z,0.09
2018-02-15T17:29:08.413Z,0.11
2018-02-15T17:31:36.718Z,0.12
2018-02-15T17:34:04.964Z,0.15
2018-02-15T17:36:33.260Z,0.16
2018-02-15T17:39:01.497Z,0.16
2018-02-15T17:41:29.755Z,0.16
2018-02-15T17:44:00.861Z,0.17
2018-02-15T17:46:29.124Z,0.19
2018-02-15T17:48:57.365Z,0.20
2018-02-15T17:51:25.651Z,0.21
2018-02-15T17:53:53.940Z,0.22
2018-02-15T17:56:24.045Z,0.22
2018-02-15T17:58:52.307Z,0.23
2018-02-15T18:01:20.585Z,0.23
2018-02-15T18:03:48.867Z,0.24
2018-02-15T18:06:17.115Z,0.22
2018-02-15T18:08:45.390Z,0.24
2018-02-15T18:11:13.660Z,0.25
2018-02-15T18:13:41.936Z,0.26
2018-02-15T18:16:12.777Z,0.27
2018-02-15T18:18:41.066Z,0.29
2018-02-15T18:21:09.321Z,0.30
2018-02-15T18:23:37.583Z,0.30
2018-02-15T18:26:05.874Z,0.31
2018-02-15T18:28:34.144Z,0.31
2018-02-15T18:31:02.437Z,0.32
2018-02-15T18:33:30.688Z,0.32
2018-02-15T18:35:59.313Z,0.34
2018-02-15T18:38:28.917Z,0.36
2018-02-15T18:40:57.209Z,0.35
2018-02-15T18:43:29.306Z,0.35
2018-02-15T18:45:57.586Z,0.36
2018-02-15T18:48:25.867Z,0.37
2018-02-15T18:50:54.170Z,0.38
2018-02-15T18:53:35.415Z,0.38
2018-02-15T18:56:03.664Z,0.38
2018-02-15T18:58:31.989Z,0.40
2018-02-15T19:01:00.259Z,0.41
2018-02-15T19:03:28.513Z,0.42
2018-02-15T19:05:56.874Z,0.42
2018-02-15T19:08:28.951Z,0.42
2018-02-15T19:10:57.260Z,0.44
2018-02-15T19:13:29.426Z,0.44
2018-02-15T19:15:57.731Z,0.45
2018-02-15T19:18:25.973Z,0.46
2018-02-15T19:20:54.336Z,0.47
2018-02-15T19:23:29.254Z,0.48
2018-02-15T19:25:57.556Z,0.49
2018-02-15T19:28:25.847Z,0.49
2018-02-15T19:30:54.154Z,0.48
2018-02-15T19:33:22.487Z,0.49
2018-02-15T19:35:50.809Z,0.50
2018-02-15T19:38:19.531Z,0.51
2018-02-15T19:40:54.385Z,0.52
2018-02-15T19:43:22.730Z,0.53
2018-02-15T19:45:51.040Z,0.54
2018-02-15T19:48:19.432Z,0.54
2018-02-15T19:50:47.760Z,0.53
2018-02-15T19:53:19.727Z,0.54
2018-02-15T19:55:48.023Z,0.48
2018-02-15T19:58:17.967Z,0.53
2018-02-15T20:00:46.332Z,0.53
2018-02-15T20:03:14.712Z,0.54
2018-02-15T20:05:44.029Z,0.55
2018-02-15T20:08:18.232Z,0.58
2018-02-15T20:10:46.604Z,0.58
2018-02-15T20:13:14.925Z,0.58
2018-02-15T20:15:47.259Z,0.58
2018-02-15T20:18:18.124Z,0.59
2018-02-15T20:20:46.488Z,0.61
2018-02-15T20:23:21.860Z,0.61
2018-02-15T20:25:55.677Z,0.62
2018-02-15T20:28:26.557Z,0.63
2018-02-15T20:30:54.934Z,0.64
2018-02-15T20:33:23.324Z,0.65
2018-02-15T20:35:51.707Z,0.64
2018-02-15T20:38:25.663Z,0.63
2018-02-15T20:40:53.945Z,0.64
2018-02-15T20:43:23.896Z,0.66
2018-02-15T20:45:52.197Z,0.68
2018-02-15T20:48:20.510Z,0.68
2018-02-15T20:50:55.126Z,0.69
2018-02-15T20:53:28.884Z,0.69
2018-02-15T20:55:57.167Z,0.70
2018-02-15T20:58:28.750Z,0.70
2018-02-15T21:00:57.043Z,0.69
2018-02-15T21:03:25.338Z,0.71
2018-02-15T21:05:53.642Z,0.72
2018-02-15T21:08:21.924Z,0.73
2018-02-15T21:10:50.315Z,0.72
2018-02-15T21:13:18.606Z,0.72
2018-02-15T21:15:46.982Z,0.73
2018-02-15T21:18:15.262Z,0.74
2018-02-15T21:20:43.568Z,0.76
2018-02-15T21:23:11.933Z,0.76
2018-02-15T21:25:40.158Z,0.75
2018-02-15T21:28:08.601Z,0.76
2018-02-15T21:30:36.874Z,0.76
2018-02-15T21:33:05.110Z,0.76
2018-02-15T21:35:33.415Z,0.77
2018-02-15T21:38:01.690Z,0.79
2018-02-15T21:40:29.933Z,0.81
2018-02-15T21:42:58.512Z,0.82
2018-02-15T21:45:26.809Z,0.84
2018-02-15T21:47:55.289Z,0.84
2018-02-15T21:50:23.573Z,0.85
2018-02-15T21:52:51.823Z,0.86
2018-02-15T21:55:20.142Z,0.85
2018-02-15T21:57:48.382Z,0.86
2018-02-15T22:00:16.685Z,0.85
2018-02-15T22:02:44.961Z,0.84
2018-02-15T22:05:13.226Z,0.83
2018-02-15T22:07:41.514Z,0.83
2018-02-15T22:10:10.392Z,0.83
2018-02-15T22:12:38.687Z,0.83
2018-02-15T22:15:09.279Z,0.83
2018-02-15T22:17:37.550Z,0.83
2018-02-15T22:20:05.802Z,0.82
2018-02-15T22:22:34.192Z,0.83
2018-02-15T22:25:02.450Z,0.83
2018-02-15T22:27:30.716Z,0.83
2018-02-15T22:29:58.981Z,0.83
2018-02-15T22:32:35.098Z,0.81
2018-02-15T22:35:18.271Z,0.84
2018-02-15T22:37:52.425Z,0.85
2018-02-15T22:40:20.682Z,0.85
2018-02-15T22:42:56.766Z,0.85
2018-02-15T22:45:25.051Z,0.85
2018-02-15T22:47:53.411Z,0.86
2018-02-15T22:50:21.696Z,0.85
2018-02-15T22:52:49.971Z,0.85
2018-02-15T22:55:18.247Z,0.85
2018-02-15T22:57:46.537Z,0.86
2018-02-15T23:00:15.636Z,0.86
2018-02-15T23:02:43.891Z,0.86
2018-02-15T23:05:12.189Z,0.87
2018-02-15T23:07:40.454Z,0.87
2018-02-15T23:10:08.719Z,0.86
2018-02-15T23:12:37.005Z,0.87
2018-02-15T23:15:05.260Z,0.86
2018-02-15T23:17:46.793Z,0.86
2018-02-15T23:20:15.126Z,0.86
2018-02-15T23:22:43.407Z,0.87
2018-02-15T23:25:11.700Z,0.86
2018-02-15T23:27:39.984Z,0.87
2018-02-15T23:33:13.639Z,0.88
2018-02-15T23:35:42.068Z,0.88
2018-02-15T23:38:10.471Z,0.89
2018-02-15T23:40:38.824Z,0.89
2018-02-15T23:43:07.135Z,0.89
2018-02-15T23:45:35.475Z,0.89
2018-02-15T23:48:03.831Z,0.90
2018-02-15T23:50:32.959Z,0.90
2018-02-15T23:53:02.061Z,0.92
2018-02-15T23:55:30.350Z,0.93
2018-02-15T23:57:58.924Z,0.91
